Simaisma — SWSP — position and weather

sailwx.info

Track history (hours):
 
Tides and Currents Weather Stations Pressure Air Temp Water Temp Dewpoint Dewpoint Depression Visibility Wind Speed Wind Dir Waves Ship Positions

Simaisma

Last reported at 2018-Feb-02 00:19 UTC. Time now 2018-Feb-20 06:15 UTC.
Position N 01°19' E 103°18'.
Warning: this ship's position is 18 days out of date.

Length 285 m; draft 9.2 m.

Type: Ship (hazmat cat A). MMSI: 240451591.

Date/timePositionNaut miles runAvg speedWind from/ knotsBaromVisibWave heightAir tempDewpointWater temp
2018-Feb-02 00:19N 01°19' E 103°18'514.8
2018-Feb-02 00:01N 01°16' E 103°22'815.2
2018-Feb-01 23:30N 01°13' E 103°29'814.6
2018-Feb-01 22:59N 01°11' E 103°36'6 5.8
2018-Feb-01 21:57N 01°10' E 103°42'0 0.0
2018-Feb-01 21:30N 01°10' E 103°42'0 0.0
2018-Feb-01 19:30N 01°10' E 103°42'0 0.0
2018-Feb-01 18:54N 01°10' E 103°42'0 0.1
2018-Feb-01 18:24N 01°10' E 103°42'0 0.1
2018-Feb-01 17:42N 01°10' E 103°42'0 0.0
2018-Feb-01 17:18N 01°10' E 103°42'0 0.2
2018-Feb-01 17:00N 01°10' E 103°42'0 0.0
2018-Feb-01 16:30N 01°10' E 103°42'0 0.0
2018-Feb-01 16:00N 01°10' E 103°42'0 0.0
2018-Feb-01 15:21N 01°10' E 103°42'0 0.0
2018-Feb-01 14:57N 01°10' E 103°42'0 0.0
2018-Feb-01 13:30N 01°10' E 103°42'0 0.0
2018-Feb-01 12:48N 01°10' E 103°42'0 0.2
2018-Feb-01 12:30N 01°10' E 103°42'0 0.3
2018-Feb-01 12:00N 01°10' E 103°42'0 0.1
2018-Feb-01 10:54N 01°10' E 103°42'0 0.0
2018-Feb-01 10:30N 01°10' E 103°42'0 0.0
2018-Feb-01 10:00N 01°10' E 103°42'0 0.1
2018-Feb-01 09:30N 01°10' E 103°42'0 0.0
2018-Feb-01 08:57N 01°10' E 103°42'0 0.0
2018-Feb-01 08:30N 01°10' E 103°42'0 0.1
2018-Feb-01 07:30N 01°10' E 103°42'0 0.2
2018-Feb-01 06:57N 01°10' E 103°42'0 0.0
2018-Feb-01 06:30N 01°10' E 103°42'0 0.0
2018-Feb-01 05:57N 01°10' E 103°42'0 0.0
2018-Feb-01 05:30N 01°10' E 103°42'0 0.0
2018-Feb-01 05:00N 01°10' E 103°42'0 0.0
2018-Feb-01 04:30N 01°10' E 103°42'0 0.0
2018-Feb-01 03:54N 01°10' E 103°42'3 2.9
2018-Feb-01 03:00N 01°09' E 103°45'5 9.3
2018-Feb-01 02:30N 01°11' E 103°49'510.5
2018-Feb-01 02:00N 01°13' E 103°54'611.3
2018-Feb-01 01:30N 01°15' E 103°59'  
2018-Jan-28 10:16N 23°04' E 119°51'818.5
2018-Jan-28 09:50N 23°12' E 119°52'618.7
2018-Jan-28 09:29N 23°19' E 119°53'918.6
2018-Jan-28 09:00N 23°28' E 119°53'918.4
2018-Jan-28 08:30N 23°37' E 119°54'918.7
2018-Jan-28 08:00N 23°46' E 119°56'3 0.1
2018-Jan-26 14:16N 23°49' E 119°56'413.8
2018-Jan-26 14:00N 23°52' E 119°58'75 3.1
2018-Jan-25 13:37N 24°56' E 120°43'90 6.5
2018-Jan-24 23:41N 23°37' E 119°55'313.3
2018-Jan-24 23:27N 23°34' E 119°55'715.0
2018-Jan-24 22:57N 23°26' E 119°55'715.8
2018-Jan-24 22:30N 23°19' E 119°55'816.3
2018-Jan-24 22:00N 23°11' E 119°55'816.8
2018-Jan-24 21:30N 23°03' E 119°55'917.6
2018-Jan-24 20:59N 22°53' E 119°54'817.9
2018-Jan-24 20:30N 22°45' E 119°54'918.4
2018-Jan-24 20:00N 22°36' E 119°53'918.8
2018-Jan-24 19:30N 22°27' E 119°50'1118.6
2018-Jan-24 18:56N 22°18' E 119°44'918.6
2018-Jan-24 18:29N 22°11' E 119°39'  
Track history (hours):
 
Tides and Currents Weather Stations Pressure Air Temp Water Temp Dewpoint Dewpoint Depression Visibility Wind Speed Wind Dir Waves Ship Positions

Simaisma

Last reported at 2018-Feb-02 00:19 UTC. Time now 2018-Feb-20 06:15 UTC.
Position N 01°19' E 103°18'.
Warning: this ship's position is 18 days out of date.

Length 285 m; draft 9.2 m.

Type: Ship (hazmat cat A). MMSI: 240451591.

Date/timePositionNaut miles runAvg speedWind from/ knotsBaromVisibWave heightAir tempDewpointWater temp
2018-Feb-02 00:19N 01°19' E 103°18'514.8
2018-Feb-02 00:01N 01°16' E 103°22'815.2
2018-Feb-01 23:30N 01°13' E 103°29'814.6
2018-Feb-01 22:59N 01°11' E 103°36'6 5.8
2018-Feb-01 21:57N 01°10' E 103°42'0 0.0
2018-Feb-01 21:30N 01°10' E 103°42'0 0.0
2018-Feb-01 19:30N 01°10' E 103°42'0 0.0
2018-Feb-01 18:54N 01°10' E 103°42'0 0.1
2018-Feb-01 18:24N 01°10' E 103°42'0 0.1
2018-Feb-01 17:42N 01°10' E 103°42'0 0.0
2018-Feb-01 17:18N 01°10' E 103°42'0 0.2
2018-Feb-01 17:00N 01°10' E 103°42'0 0.0
2018-Feb-01 16:30N 01°10' E 103°42'0 0.0
2018-Feb-01 16:00N 01°10' E 103°42'0 0.0
2018-Feb-01 15:21N 01°10' E 103°42'0 0.0
2018-Feb-01 14:57N 01°10' E 103°42'0 0.0
2018-Feb-01 13:30N 01°10' E 103°42'0 0.0
2018-Feb-01 12:48N 01°10' E 103°42'0 0.2
2018-Feb-01 12:30N 01°10' E 103°42'0 0.3
2018-Feb-01 12:00N 01°10' E 103°42'0 0.1
2018-Feb-01 10:54N 01°10' E 103°42'0 0.0
2018-Feb-01 10:30N 01°10' E 103°42'0 0.0
2018-Feb-01 10:00N 01°10' E 103°42'0 0.1
2018-Feb-01 09:30N 01°10' E 103°42'0 0.0
2018-Feb-01 08:57N 01°10' E 103°42'0 0.0
2018-Feb-01 08:30N 01°10' E 103°42'0 0.1
2018-Feb-01 07:30N 01°10' E 103°42'0 0.2
2018-Feb-01 06:57N 01°10' E 103°42'0 0.0
2018-Feb-01 06:30N 01°10' E 103°42'0 0.0
2018-Feb-01 05:57N 01°10' E 103°42'0 0.0
2018-Feb-01 05:30N 01°10' E 103°42'0 0.0
2018-Feb-01 05:00N 01°10' E 103°42'0 0.0
2018-Feb-01 04:30N 01°10' E 103°42'0 0.0
2018-Feb-01 03:54N 01°10' E 103°42'3 2.9
2018-Feb-01 03:00N 01°09' E 103°45'5 9.3
2018-Feb-01 02:30N 01°11' E 103°49'510.5
2018-Feb-01 02:00N 01°13' E 103°54'611.3
2018-Feb-01 01:30N 01°15' E 103°59'  
2018-Jan-28 10:16N 23°04' E 119°51'818.5
2018-Jan-28 09:50N 23°12' E 119°52'618.7
2018-Jan-28 09:29N 23°19' E 119°53'918.6
2018-Jan-28 09:00N 23°28' E 119°53'918.4
2018-Jan-28 08:30N 23°37' E 119°54'918.7
2018-Jan-28 08:00N 23°46' E 119°56'3 0.1
2018-Jan-26 14:16N 23°49' E 119°56'413.8
2018-Jan-26 14:00N 23°52' E 119°58'75 3.1
2018-Jan-25 13:37N 24°56' E 120°43'90 6.5
2018-Jan-24 23:41N 23°37' E 119°55'313.3
2018-Jan-24 23:27N 23°34' E 119°55'715.0
2018-Jan-24 22:57N 23°26' E 119°55'715.8
2018-Jan-24 22:30N 23°19' E 119°55'816.3
2018-Jan-24 22:00N 23°11' E 119°55'816.8
2018-Jan-24 21:30N 23°03' E 119°55'917.6
2018-Jan-24 20:59N 22°53' E 119°54'817.9
2018-Jan-24 20:30N 22°45' E 119°54'918.4
2018-Jan-24 20:00N 22°36' E 119°53'918.8
2018-Jan-24 19:30N 22°27' E 119°50'1118.6
2018-Jan-24 18:56N 22°18' E 119°44'918.6
2018-Jan-24 18:29N 22°11' E 119°39'  

Dump ship's entire track history